Kiyomaru — JK5234 — position and weather

sailwx.info

Track history (hours):
 
Tides and Currents Weather Stations Pressure Air Temp Water Temp Dewpoint Dewpoint Depression Visibility Wind Speed Wind Dir Waves Ship Positions

Kiyomaru

Last reported at 2018-Apr-21 16:34 UTC. Time now 2018-Apr-22 06:41 UTC.
Position N 34°24' E 133°43'.

Length 121 m; draft 4 m.

Type: Cargo ship. MMSI: 431400386.

Date/timePositionNaut miles runAvg speedWind from/ knotsBaromVisibWave heightAir tempDewpointWater temp
2018-Apr-21 16:34N 34°24' E 133°43'3 9.4
2018-Apr-21 16:15N 34°22' E 133°45'3 9.5
2018-Apr-21 15:58N 34°23' E 133°48'1410.2
2018-Apr-21 14:38N 34°27' E 134°04'110.6
2018-Apr-21 14:30N 34°27' E 134°05'510.4
2018-Apr-21 13:59N 34°25' E 134°12'5 9.9
2018-Apr-21 13:30N 34°25' E 134°17'5 9.1
2018-Apr-21 12:56N 34°26' E 134°23'4 9.0
2018-Apr-21 12:30N 34°27' E 134°28'4 8.6
2018-Apr-21 12:00N 34°29' E 134°33'4 8.7
2018-Apr-21 11:30N 34°31' E 134°37'4 8.7
2018-Apr-21 11:00N 34°32' E 134°42'4 8.5
2018-Apr-21 10:30N 34°34' E 134°47'4 8.2
2018-Apr-21 10:00N 34°35' E 134°52'4 7.4
2018-Apr-21 09:30N 34°37' E 134°56'3 6.7
2018-Apr-21 09:00N 34°38' E 134°60'3 5.1
2018-Apr-21 08:30N 34°37' E 135°03'3 6.2
2018-Apr-21 08:00N 34°36' E 135°06'4 7.9
2018-Apr-21 07:30N 34°37' E 135°11'4 8.2
2018-Apr-21 07:00N 34°37' E 135°16'4 8.0
2018-Apr-21 06:30N 34°37' E 135°21'4 7.6
2018-Apr-21 06:00N 34°35' E 135°25'0 0.8
2018-Apr-21 05:30N 34°35' E 135°26'0 0.0
2018-Apr-21 05:00N 34°35' E 135°26'0 0.0
2018-Apr-21 04:30N 34°35' E 135°26'0 0.0
2018-Apr-21 04:00N 34°35' E 135°26'1 1.4
2018-Apr-21 03:30N 34°36' E 135°25'4 7.5
2018-Apr-21 03:00N 34°36' E 135°21'4 7.0
2018-Apr-21 02:30N 34°40' E 135°21'4 7.2
2018-Apr-21 02:00N 34°43' E 135°21'0 0.1
2018-Apr-21 01:30N 34°43' E 135°21'0 0.0
2018-Apr-21 01:00N 34°43' E 135°21'0 0.0
2018-Apr-21 00:30N 34°43' E 135°21'0 0.0
2018-Apr-21 00:00N 34°43' E 135°21'0 0.0
2018-Apr-20 23:30N 34°43' E 135°21'0 0.0
2018-Apr-20 23:00N 34°43' E 135°21'0 0.0
2018-Apr-20 22:30N 34°43' E 135°21'0 0.0
2018-Apr-20 22:00N 34°43' E 135°21'0 0.0
2018-Apr-20 21:30N 34°43' E 135°21'0 0.0
2018-Apr-20 21:00N 34°43' E 135°21'0 0.0
2018-Apr-20 20:27N 34°43' E 135°21'2 4.7
2018-Apr-20 20:00N 34°41' E 135°19'4 8.4
2018-Apr-20 19:30N 34°38' E 135°16'4 8.6
2018-Apr-20 19:00N 34°36' E 135°12'4 8.9
2018-Apr-20 18:30N 34°35' E 135°06'4 9.0
2018-Apr-20 18:00N 34°37' E 135°01'5 9.3
2018-Apr-20 17:30N 34°35' E 134°56'4 7.6
2018-Apr-20 17:00N 34°34' E 134°52'4 7.3
2018-Apr-20 16:30N 34°32' E 134°48'4 7.8
2018-Apr-20 16:00N 34°31' E 134°43'4 8.2
2018-Apr-20 15:30N 34°29' E 134°39'4 8.9
2018-Apr-20 15:00N 34°27' E 134°34'4 8.8
2018-Apr-20 14:30N 34°26' E 134°29'4 8.6
2018-Apr-20 13:59N 34°25' E 134°24'4 8.4
2018-Apr-20 13:30N 34°24' E 134°19'4 7.8
2018-Apr-20 12:59N 34°24' E 134°14'4 7.2
2018-Apr-20 12:29N 34°25' E 134°10'8 0.4
2018-Apr-19 17:06N 34°26' E 133°60'1 6.9
2018-Apr-19 16:59N 34°26' E 134°01'4 7.9
2018-Apr-19 16:28N 34°27' E 134°05'4 9.0
2018-Apr-19 16:00N 34°26' E 134°10'4 9.1
2018-Apr-19 15:30N 34°24' E 134°15'5 9.0
2018-Apr-19 15:00N 34°25' E 134°21'4 9.1
2018-Apr-19 14:30N 34°27' E 134°26'5 9.1
2018-Apr-19 13:59N 34°29' E 134°31'4 9.3
2018-Apr-19 13:30N 34°30' E 134°36'5 9.6
2018-Apr-19 13:00N 34°32' E 134°42'510.2
2018-Apr-19 12:30N 34°34' E 134°47'612.0
2018-Apr-19 12:00N 34°36' E 134°54'611.0
2018-Apr-19 11:30N 34°38' E 135°01'510.2
2018-Apr-19 11:00N 34°36' E 135°06'4 9.0
2018-Apr-19 10:30N 34°36' E 135°12'4 8.4
2018-Apr-19 10:00N 34°36' E 135°17'4 8.0
2018-Apr-19 09:30N 34°36' E 135°22'3 6.8
2018-Apr-19 09:00N 34°35' E 135°26'0 0.1
2018-Apr-19 08:30N 34°35' E 135°26'0 0.0
2018-Apr-19 08:00N 34°35' E 135°26'0 0.0
2018-Apr-19 07:30N 34°35' E 135°26'0 0.0
2018-Apr-19 07:00N 34°35' E 135°26'2 3.9
2018-Apr-19 06:30N 34°36' E 135°24'4 7.8
2018-Apr-19 06:00N 34°37' E 135°19'4 7.8
2018-Apr-19 05:30N 34°41' E 135°20'2 3.8
2018-Apr-19 04:59N 34°43' E 135°21'0 0.0
2018-Apr-19 04:30N 34°43' E 135°21'0 0.0
2018-Apr-19 04:01N 34°43' E 135°21'0 0.0
2018-Apr-19 03:30N 34°43' E 135°21'0 0.0
2018-Apr-19 03:00N 34°43' E 135°21'0 0.0
2018-Apr-19 02:29N 34°43' E 135°21'0 0.0
2018-Apr-19 02:00N 34°43' E 135°21'2 3.6
2018-Apr-19 01:30N 34°41' E 135°20'4 8.4
2018-Apr-19 01:00N 34°38' E 135°17'4 8.2
2018-Apr-19 00:30N 34°36' E 135°13'4 8.7
2018-Apr-19 00:00N 34°35' E 135°08'4 8.4
2018-Apr-18 23:30N 34°36' E 135°03'3 6.3
2018-Apr-18 23:00N 34°37' E 134°59'4 8.9
2018-Apr-18 22:30N 34°35' E 134°54'4 8.8
2018-Apr-18 22:00N 34°33' E 134°49'4 8.9
2018-Apr-18 21:30N 34°31' E 134°44'5 9.1
2018-Apr-18 21:00N 34°30' E 134°39'5 9.2
2018-Apr-18 20:30N 34°28' E 134°34'5 9.1
2018-Apr-18 20:00N 34°26' E 134°29'5 9.1
2018-Apr-18 19:30N 34°24' E 134°24'5 9.4
2018-Apr-18 19:00N 34°24' E 134°18'510.2
2018-Apr-18 18:30N 34°24' E 134°12'3 0.2
2018-Apr-18 00:41N 34°26' E 134°09'310.3
2018-Apr-18 00:23N 34°25' E 134°13'4 9.8
2018-Apr-17 23:58N 34°25' E 134°18'4 9.4
2018-Apr-17 23:29N 34°26' E 134°23'4 9.2
2018-Apr-17 23:00N 34°28' E 134°28'5 9.3
2018-Apr-17 22:30N 34°29' E 134°33'5 9.1
2018-Apr-17 22:00N 34°31' E 134°38'4 8.8
2018-Apr-17 21:30N 34°32' E 134°43'4 8.8
2018-Apr-17 21:00N 34°34' E 134°48'4 8.4
2018-Apr-17 20:30N 34°36' E 134°53'4 8.2
2018-Apr-17 20:00N 34°37' E 134°57'3 6.7
2018-Apr-17 19:30N 34°37' E 135°01'2 4.9
2018-Apr-17 19:00N 34°36' E 135°04'3 6.4
2018-Apr-17 18:30N 34°36' E 135°08'4 8.4
2018-Apr-17 18:00N 34°37' E 135°13'4 8.4
2018-Apr-17 17:30N 34°38' E 135°18'4 8.3
2018-Apr-17 17:00N 34°42' E 135°20'2 3.3
2018-Apr-17 16:30N 34°43' E 135°21'0 0.0
2018-Apr-17 16:00N 34°43' E 135°21'0 0.0
2018-Apr-17 15:30N 34°43' E 135°21'0 0.0
2018-Apr-17 15:00N 34°43' E 135°21'0 0.0
2018-Apr-17 14:30N 34°43' E 135°21'0 0.0
2018-Apr-17 14:00N 34°43' E 135°21'0 0.0
2018-Apr-17 13:30N 34°43' E 135°21'0 0.0
2018-Apr-17 13:00N 34°43' E 135°21'0 0.0
2018-Apr-17 12:30N 34°43' E 135°21'0 0.0
2018-Apr-17 12:00N 34°43' E 135°21'0 0.0
2018-Apr-17 11:30N 34°43' E 135°21'0 0.0
2018-Apr-17 11:00N 34°43' E 135°21'0 0.0
2018-Apr-17 10:30N 34°43' E 135°21'0 0.0
2018-Apr-17 10:00N 34°43' E 135°21'3 5.3
2018-Apr-17 09:30N 34°41' E 135°19'4 8.2
2018-Apr-17 09:00N 34°37' E 135°20'4 8.5
2018-Apr-17 08:30N 34°36' E 135°25'1 1.3
2018-Apr-17 08:00N 34°35' E 135°26'0 0.0
2018-Apr-17 07:30N 34°35' E 135°26'0 0.0
2018-Apr-17 07:00N 34°35' E 135°26'0 0.0
2018-Apr-17 06:30N 34°35' E 135°26'1 1.1
2018-Apr-17 06:00N 34°36' E 135°25'3 6.5
2018-Apr-17 05:30N 34°36' E 135°21'2 4.5
2018-Apr-17 05:00N 34°35' E 135°19'0 0.1
2018-Apr-17 04:30N 34°35' E 135°19'0 0.0
2018-Apr-17 04:00N 34°35' E 135°19'0 0.1
2018-Apr-17 03:30N 34°35' E 135°18'0 0.0
2018-Apr-17 02:58N 34°35' E 135°18'3 6.5
2018-Apr-17 02:30N 34°35' E 135°15'3 6.9
2018-Apr-17 02:00N 34°35' E 135°11'3 5.2
2018-Apr-17 01:30N 34°35' E 135°08'4 7.0
2018-Apr-17 01:00N 34°36' E 135°03'3 5.7
2018-Apr-17 00:30N 34°37' E 135°00'4 7.1
2018-Apr-17 00:00N 34°36' E 134°56'3 6.0
2018-Apr-16 23:30N 34°34' E 134°53'3 6.5
2018-Apr-16 23:00N 34°33' E 134°50'4 7.6
2018-Apr-16 22:30N 34°31' E 134°46'4 8.3
2018-Apr-16 22:00N 34°30' E 134°41'4 8.4
2018-Apr-16 21:30N 34°28' E 134°36'4 8.5
2018-Apr-16 21:00N 34°26' E 134°31'4 8.4
2018-Apr-16 20:30N 34°25' E 134°27'4 8.7
2018-Apr-16 20:00N 34°24' E 134°21'4 8.8
2018-Apr-16 19:30N 34°24' E 134°16'5 9.5
2018-Apr-16 18:59N 34°25' E 134°10'6 0.2
2018-Apr-15 12:08N 34°27' E 134°04'210.0
2018-Apr-15 11:58N 34°27' E 134°06'610.4
2018-Apr-15 11:23N 34°25' E 134°13'4 9.9
2018-Apr-15 11:00N 34°25' E 134°17'5 9.7
2018-Apr-15 10:30N 34°26' E 134°23'5 9.5
2018-Apr-15 09:59N 34°28' E 134°28'5 9.5
2018-Apr-15 09:30N 34°30' E 134°34'5 9.5
2018-Apr-15 09:00N 34°31' E 134°39'5 9.4
2018-Apr-15 08:30N 34°33' E 134°44'5 9.0
2018-Apr-15 08:00N 34°34' E 134°50'4 8.6
2018-Apr-15 07:30N 34°36' E 134°54'4 7.9
2018-Apr-15 07:00N 34°37' E 134°59'3 6.3
2018-Apr-15 06:30N 34°37' E 135°03'3 5.2
2018-Apr-15 06:00N 34°36' E 135°06'4 8.5
2018-Apr-15 05:30N 34°36' E 135°11'5 9.0
2018-Apr-15 05:00N 34°37' E 135°16'4 9.0
2018-Apr-15 04:30N 34°36' E 135°22'4 7.2
2018-Apr-15 04:01N 34°35' E 135°26'0 0.1
2018-Apr-15 03:30N 34°35' E 135°26'0 0.0
2018-Apr-15 03:00N 34°35' E 135°26'0 0.0
2018-Apr-15 02:30N 34°35' E 135°26'0 0.0
2018-Apr-15 02:00N 34°35' E 135°26'0 0.0
2018-Apr-15 01:30N 34°35' E 135°26'0 0.0
2018-Apr-15 01:00N 34°35' E 135°26'0 0.0
2018-Apr-15 00:30N 34°35' E 135°26'0 0.0
2018-Apr-15 00:00N 34°35' E 135°26'0 0.0
2018-Apr-14 23:30N 34°35' E 135°26'0 0.0
2018-Apr-14 23:00N 34°35' E 135°26'0 0.0
2018-Apr-14 22:30N 34°35' E 135°26'0 0.0
2018-Apr-14 22:00N 34°35' E 135°26'0 0.0
2018-Apr-14 21:30N 34°35' E 135°26'0 0.0
2018-Apr-14 21:00N 34°35' E 135°26'0 0.0
2018-Apr-14 20:30N 34°35' E 135°26'0 0.0
2018-Apr-14 20:00N 34°35' E 135°26'0 0.0
2018-Apr-14 19:30N 34°35' E 135°26'0 0.0
2018-Apr-14 19:00N 34°35' E 135°26'0 0.0
2018-Apr-14 18:30N 34°35' E 135°26'0 0.0
2018-Apr-14 18:00N 34°35' E 135°26'0 0.0
2018-Apr-14 17:30N 34°35' E 135°26'0 0.0
2018-Apr-14 17:00N 34°35' E 135°26'0 0.0
2018-Apr-14 16:30N 34°35' E 135°26'0 0.0
2018-Apr-14 16:00N 34°35' E 135°26'0 0.0
2018-Apr-14 15:30N 34°35' E 135°26'0 0.0
2018-Apr-14 15:00N 34°35' E 135°26'0 0.0
2018-Apr-14 14:30N 34°35' E 135°26'0 0.0
2018-Apr-14 14:00N 34°35' E 135°26'0 0.0
2018-Apr-14 13:30N 34°35' E 135°26'0 0.0
2018-Apr-14 13:00N 34°35' E 135°26'0 0.0
2018-Apr-14 12:30N 34°35' E 135°26'0 0.0
2018-Apr-14 12:00N 34°35' E 135°26'0 0.0
2018-Apr-14 11:30N 34°35' E 135°26'0 0.0
2018-Apr-14 11:00N 34°35' E 135°26'0 0.0
2018-Apr-14 10:30N 34°35' E 135°26'0 0.0
2018-Apr-14 10:00N 34°35' E 135°26'0 0.0
2018-Apr-14 09:30N 34°35' E 135°26'0 0.0
2018-Apr-14 09:00N 34°35' E 135°26'0 0.0
2018-Apr-14 08:30N 34°35' E 135°26'0 0.0
2018-Apr-14 08:00N 34°35' E 135°26'0 0.0
2018-Apr-14 07:30N 34°35' E 135°26'0 0.0
2018-Apr-14 07:00N 34°35' E 135°26'0 0.0
2018-Apr-14 06:30N 34°35' E 135°26'0 0.0
2018-Apr-14 06:00N 34°35' E 135°26'0 0.0
2018-Apr-14 05:30N 34°35' E 135°26'0 0.0
2018-Apr-14 05:00N 34°35' E 135°26'0 0.0
2018-Apr-14 04:30N 34°35' E 135°26'0 0.0
2018-Apr-14 04:00N 34°35' E 135°26'0 0.0
2018-Apr-14 03:30N 34°35' E 135°26'0 0.0
2018-Apr-14 03:00N 34°35' E 135°26'0 0.0
2018-Apr-14 02:30N 34°35' E 135°26'0 0.0
2018-Apr-14 02:00N 34°35' E 135°26'0 0.0
2018-Apr-14 01:30N 34°35' E 135°26'0 0.0
2018-Apr-14 01:00N 34°35' E 135°26'0 0.0
2018-Apr-14 00:30N 34°35' E 135°26'0 0.0
2018-Apr-14 00:00N 34°35' E 135°26'1 2.9
2018-Apr-13 23:30N 34°36' E 135°24'4 7.0
2018-Apr-13 23:00N 34°36' E 135°20'3 6.5
2018-Apr-13 22:30N 34°39' E 135°21'4 7.5
2018-Apr-13 22:01N 34°43' E 135°21'0 0.1
2018-Apr-13 21:28N 34°43' E 135°21'0 0.0
2018-Apr-13 21:00N 34°43' E 135°21'0 0.0
2018-Apr-13 20:30N 34°43' E 135°21'0 0.0
2018-Apr-13 20:00N 34°43' E 135°21'0 0.0
2018-Apr-13 19:30N 34°43' E 135°21'0 0.0
2018-Apr-13 19:00N 34°43' E 135°21'0 0.0
2018-Apr-13 18:30N 34°43' E 135°21'0 0.0
2018-Apr-13 18:00N 34°43' E 135°21'0 0.0
2018-Apr-13 17:30N 34°43' E 135°21'0 0.0
2018-Apr-13 17:00N 34°43' E 135°21'0 0.0
2018-Apr-13 16:30N 34°43' E 135°21'0 0.0
2018-Apr-13 16:00N 34°43' E 135°21'0 0.0
2018-Apr-13 15:30N 34°43' E 135°21'0 0.0
2018-Apr-13 15:00N 34°43' E 135°21'0 0.0
2018-Apr-13 14:30N 34°43' E 135°21'0 0.0
2018-Apr-13 14:00N 34°43' E 135°21'0 0.0
2018-Apr-13 13:30N 34°43' E 135°21'0 0.0
2018-Apr-13 13:00N 34°43' E 135°21'0 0.0
2018-Apr-13 12:30N 34°43' E 135°21'3 5.0
2018-Apr-13 12:00N 34°41' E 135°19'4 7.9
2018-Apr-13 11:30N 34°38' E 135°16'4 7.9
2018-Apr-13 11:00N 34°36' E 135°12'4 7.9
2018-Apr-13 10:30N 34°35' E 135°07'4 7.5
2018-Apr-13 10:00N 34°36' E 135°03'3 5.3
2018-Apr-13 09:30N 34°37' E 134°60'3 6.1
2018-Apr-13 09:00N 34°36' E 134°56'4 7.2
2018-Apr-13 08:30N 34°34' E 134°53'4 7.9
2018-Apr-13 08:00N 34°32' E 134°48'4 8.6
2018-Apr-13 07:30N 34°31' E 134°43'4 9.0
2018-Apr-13 07:00N 34°29' E 134°38'5 9.1
2018-Apr-13 06:30N 34°27' E 134°33'5 9.0
2018-Apr-13 06:00N 34°26' E 134°28'5 9.2
2018-Apr-13 05:30N 34°24' E 134°23'5 9.3
2018-Apr-13 04:59N 34°24' E 134°17'12 0.8
2018-Apr-12 15:09N 34°27' E 134°04'1 7.7
2018-Apr-12 15:00N 34°27' E 134°05'4 7.5
2018-Apr-12 14:29N 34°26' E 134°10'4 7.5
2018-Apr-12 14:00N 34°24' E 134°14'4 7.8
2018-Apr-12 13:30N 34°24' E 134°18'4 8.5
2018-Apr-12 12:59N 34°26' E 134°23'4 8.5
2018-Apr-12 12:30N 34°27' E 134°28'4 9.0
2018-Apr-12 12:00N 34°29' E 134°33'5 9.0
2018-Apr-12 11:30N 34°31' E 134°38'5 9.1
2018-Apr-12 11:00N 34°32' E 134°43'5 9.5
2018-Apr-12 10:30N 34°34' E 134°49'510.4
2018-Apr-12 10:00N 34°36' E 134°54'510.5
2018-Apr-12 09:30N 34°38' E 135°00'510.2
2018-Apr-12 09:00N 34°36' E 135°06'5 9.5
2018-Apr-12 08:30N 34°37' E 135°12'4 8.9
2018-Apr-12 08:00N 34°38' E 135°17'4 8.1
2018-Apr-12 07:30N 34°42' E 135°20'2 3.2
2018-Apr-12 07:00N 34°43' E 135°21'0 0.0
2018-Apr-12 06:30N 34°43' E 135°21'0 0.0
2018-Apr-12 06:00N 34°43' E 135°21'0 0.0
2018-Apr-12 05:30N 34°43' E 135°21'0 0.0
2018-Apr-12 05:00N 34°43' E 135°21'0 0.0
2018-Apr-12 04:30N 34°43' E 135°21'0 0.0
2018-Apr-12 04:00N 34°43' E 135°21'3 6.0
2018-Apr-12 03:30N 34°40' E 135°22'4 7.4
2018-Apr-12 03:00N 34°37' E 135°21'4 7.5
2018-Apr-12 02:30N 34°35' E 135°26'0 0.4
2018-Apr-12 02:00N 34°35' E 135°26'0 0.0
2018-Apr-12 01:30N 34°35' E 135°26'0 0.0
2018-Apr-12 01:00N 34°35' E 135°26'0 0.0
2018-Apr-12 00:30N 34°35' E 135°26'0 0.0
2018-Apr-12 00:00N 34°35' E 135°26'2 4.5
2018-Apr-11 23:30N 34°36' E 135°23'4 8.4
2018-Apr-11 23:00N 34°36' E 135°18'4 8.0
2018-Apr-11 22:30N 34°35' E 135°13'4 7.9
2018-Apr-11 22:00N 34°35' E 135°09'4 7.5
2018-Apr-11 21:30N 34°35' E 135°04'3 6.1
2018-Apr-11 21:00N 34°37' E 135°01'3 5.6
2018-Apr-11 20:30N 34°36' E 134°58'4 7.1
2018-Apr-11 20:00N 34°35' E 134°54'4 7.3
2018-Apr-11 19:30N 34°33' E 134°50'4 8.1
2018-Apr-11 19:00N 34°32' E 134°45'4 8.6
2018-Apr-11 18:30N 34°30' E 134°41'4 8.6
2018-Apr-11 18:00N 34°28' E 134°36'4 8.7
2018-Apr-11 17:30N 34°27' E 134°31'4 8.8
2018-Apr-11 17:00N 34°25' E 134°26'  
Track history (hours):
 
Tides and Currents Weather Stations Pressure Air Temp Water Temp Dewpoint Dewpoint Depression Visibility Wind Speed Wind Dir Waves Ship Positions

Kiyomaru

Last reported at 2018-Apr-21 16:34 UTC. Time now 2018-Apr-22 06:41 UTC.
Position N 34°24' E 133°43'.

Length 121 m; draft 4 m.

Type: Cargo ship. MMSI: 431400386.

Date/timePositionNaut miles runAvg speedWind from/ knotsBaromVisibWave heightAir tempDewpointWater temp
2018-Apr-21 16:34N 34°24' E 133°43'3 9.4
2018-Apr-21 16:15N 34°22' E 133°45'3 9.5
2018-Apr-21 15:58N 34°23' E 133°48'1410.2
2018-Apr-21 14:38N 34°27' E 134°04'110.6
2018-Apr-21 14:30N 34°27' E 134°05'510.4
2018-Apr-21 13:59N 34°25' E 134°12'5 9.9
2018-Apr-21 13:30N 34°25' E 134°17'5 9.1
2018-Apr-21 12:56N 34°26' E 134°23'4 9.0
2018-Apr-21 12:30N 34°27' E 134°28'4 8.6
2018-Apr-21 12:00N 34°29' E 134°33'4 8.7
2018-Apr-21 11:30N 34°31' E 134°37'4 8.7
2018-Apr-21 11:00N 34°32' E 134°42'4 8.5
2018-Apr-21 10:30N 34°34' E 134°47'4 8.2
2018-Apr-21 10:00N 34°35' E 134°52'4 7.4
2018-Apr-21 09:30N 34°37' E 134°56'3 6.7
2018-Apr-21 09:00N 34°38' E 134°60'3 5.1
2018-Apr-21 08:30N 34°37' E 135°03'3 6.2
2018-Apr-21 08:00N 34°36' E 135°06'4 7.9
2018-Apr-21 07:30N 34°37' E 135°11'4 8.2
2018-Apr-21 07:00N 34°37' E 135°16'4 8.0
2018-Apr-21 06:30N 34°37' E 135°21'4 7.6
2018-Apr-21 06:00N 34°35' E 135°25'0 0.8
2018-Apr-21 05:30N 34°35' E 135°26'0 0.0
2018-Apr-21 05:00N 34°35' E 135°26'0 0.0
2018-Apr-21 04:30N 34°35' E 135°26'0 0.0
2018-Apr-21 04:00N 34°35' E 135°26'1 1.4
2018-Apr-21 03:30N 34°36' E 135°25'4 7.5
2018-Apr-21 03:00N 34°36' E 135°21'4 7.0
2018-Apr-21 02:30N 34°40' E 135°21'4 7.2
2018-Apr-21 02:00N 34°43' E 135°21'0 0.1
2018-Apr-21 01:30N 34°43' E 135°21'0 0.0
2018-Apr-21 01:00N 34°43' E 135°21'0 0.0
2018-Apr-21 00:30N 34°43' E 135°21'0 0.0
2018-Apr-21 00:00N 34°43' E 135°21'0 0.0
2018-Apr-20 23:30N 34°43' E 135°21'0 0.0
2018-Apr-20 23:00N 34°43' E 135°21'0 0.0
2018-Apr-20 22:30N 34°43' E 135°21'0 0.0
2018-Apr-20 22:00N 34°43' E 135°21'0 0.0
2018-Apr-20 21:30N 34°43' E 135°21'0 0.0
2018-Apr-20 21:00N 34°43' E 135°21'0 0.0
2018-Apr-20 20:27N 34°43' E 135°21'2 4.7
2018-Apr-20 20:00N 34°41' E 135°19'4 8.4
2018-Apr-20 19:30N 34°38' E 135°16'4 8.6
2018-Apr-20 19:00N 34°36' E 135°12'4 8.9
2018-Apr-20 18:30N 34°35' E 135°06'4 9.0
2018-Apr-20 18:00N 34°37' E 135°01'5 9.3
2018-Apr-20 17:30N 34°35' E 134°56'4 7.6
2018-Apr-20 17:00N 34°34' E 134°52'4 7.3
2018-Apr-20 16:30N 34°32' E 134°48'4 7.8
2018-Apr-20 16:00N 34°31' E 134°43'4 8.2
2018-Apr-20 15:30N 34°29' E 134°39'4 8.9
2018-Apr-20 15:00N 34°27' E 134°34'4 8.8
2018-Apr-20 14:30N 34°26' E 134°29'4 8.6
2018-Apr-20 13:59N 34°25' E 134°24'4 8.4
2018-Apr-20 13:30N 34°24' E 134°19'4 7.8
2018-Apr-20 12:59N 34°24' E 134°14'4 7.2
2018-Apr-20 12:29N 34°25' E 134°10'8 0.4
2018-Apr-19 17:06N 34°26' E 133°60'1 6.9
2018-Apr-19 16:59N 34°26' E 134°01'4 7.9
2018-Apr-19 16:28N 34°27' E 134°05'4 9.0
2018-Apr-19 16:00N 34°26' E 134°10'4 9.1
2018-Apr-19 15:30N 34°24' E 134°15'5 9.0
2018-Apr-19 15:00N 34°25' E 134°21'4 9.1
2018-Apr-19 14:30N 34°27' E 134°26'5 9.1
2018-Apr-19 13:59N 34°29' E 134°31'4 9.3
2018-Apr-19 13:30N 34°30' E 134°36'5 9.6
2018-Apr-19 13:00N 34°32' E 134°42'510.2
2018-Apr-19 12:30N 34°34' E 134°47'612.0
2018-Apr-19 12:00N 34°36' E 134°54'611.0
2018-Apr-19 11:30N 34°38' E 135°01'510.2
2018-Apr-19 11:00N 34°36' E 135°06'4 9.0
2018-Apr-19 10:30N 34°36' E 135°12'4 8.4
2018-Apr-19 10:00N 34°36' E 135°17'4 8.0
2018-Apr-19 09:30N 34°36' E 135°22'3 6.8
2018-Apr-19 09:00N 34°35' E 135°26'0 0.1
2018-Apr-19 08:30N 34°35' E 135°26'0 0.0
2018-Apr-19 08:00N 34°35' E 135°26'0 0.0
2018-Apr-19 07:30N 34°35' E 135°26'0 0.0
2018-Apr-19 07:00N 34°35' E 135°26'2 3.9
2018-Apr-19 06:30N 34°36' E 135°24'4 7.8
2018-Apr-19 06:00N 34°37' E 135°19'4 7.8
2018-Apr-19 05:30N 34°41' E 135°20'2 3.8
2018-Apr-19 04:59N 34°43' E 135°21'0 0.0
2018-Apr-19 04:30N 34°43' E 135°21'0 0.0
2018-Apr-19 04:01N 34°43' E 135°21'0 0.0
2018-Apr-19 03:30N 34°43' E 135°21'0 0.0
2018-Apr-19 03:00N 34°43' E 135°21'0 0.0
2018-Apr-19 02:29N 34°43' E 135°21'0 0.0
2018-Apr-19 02:00N 34°43' E 135°21'2 3.6
2018-Apr-19 01:30N 34°41' E 135°20'4 8.4
2018-Apr-19 01:00N 34°38' E 135°17'4 8.2
2018-Apr-19 00:30N 34°36' E 135°13'4 8.7
2018-Apr-19 00:00N 34°35' E 135°08'4 8.4
2018-Apr-18 23:30N 34°36' E 135°03'3 6.3
2018-Apr-18 23:00N 34°37' E 134°59'4 8.9
2018-Apr-18 22:30N 34°35' E 134°54'4 8.8
2018-Apr-18 22:00N 34°33' E 134°49'4 8.9
2018-Apr-18 21:30N 34°31' E 134°44'5 9.1
2018-Apr-18 21:00N 34°30' E 134°39'5 9.2
2018-Apr-18 20:30N 34°28' E 134°34'5 9.1
2018-Apr-18 20:00N 34°26' E 134°29'5 9.1
2018-Apr-18 19:30N 34°24' E 134°24'5 9.4
2018-Apr-18 19:00N 34°24' E 134°18'510.2
2018-Apr-18 18:30N 34°24' E 134°12'3 0.2
2018-Apr-18 00:41N 34°26' E 134°09'310.3
2018-Apr-18 00:23N 34°25' E 134°13'4 9.8
2018-Apr-17 23:58N 34°25' E 134°18'4 9.4
2018-Apr-17 23:29N 34°26' E 134°23'4 9.2
2018-Apr-17 23:00N 34°28' E 134°28'5 9.3
2018-Apr-17 22:30N 34°29' E 134°33'5 9.1
2018-Apr-17 22:00N 34°31' E 134°38'4 8.8
2018-Apr-17 21:30N 34°32' E 134°43'4 8.8
2018-Apr-17 21:00N 34°34' E 134°48'4 8.4
2018-Apr-17 20:30N 34°36' E 134°53'4 8.2
2018-Apr-17 20:00N 34°37' E 134°57'3 6.7
2018-Apr-17 19:30N 34°37' E 135°01'2 4.9
2018-Apr-17 19:00N 34°36' E 135°04'3 6.4
2018-Apr-17 18:30N 34°36' E 135°08'4 8.4
2018-Apr-17 18:00N 34°37' E 135°13'4 8.4
2018-Apr-17 17:30N 34°38' E 135°18'4 8.3
2018-Apr-17 17:00N 34°42' E 135°20'2 3.3
2018-Apr-17 16:30N 34°43' E 135°21'0 0.0
2018-Apr-17 16:00N 34°43' E 135°21'0 0.0
2018-Apr-17 15:30N 34°43' E 135°21'0 0.0
2018-Apr-17 15:00N 34°43' E 135°21'0 0.0
2018-Apr-17 14:30N 34°43' E 135°21'0 0.0
2018-Apr-17 14:00N 34°43' E 135°21'0 0.0
2018-Apr-17 13:30N 34°43' E 135°21'0 0.0
2018-Apr-17 13:00N 34°43' E 135°21'0 0.0
2018-Apr-17 12:30N 34°43' E 135°21'0 0.0
2018-Apr-17 12:00N 34°43' E 135°21'0 0.0
2018-Apr-17 11:30N 34°43' E 135°21'0 0.0
2018-Apr-17 11:00N 34°43' E 135°21'0 0.0
2018-Apr-17 10:30N 34°43' E 135°21'0 0.0
2018-Apr-17 10:00N 34°43' E 135°21'3 5.3
2018-Apr-17 09:30N 34°41' E 135°19'4 8.2
2018-Apr-17 09:00N 34°37' E 135°20'4 8.5
2018-Apr-17 08:30N 34°36' E 135°25'1 1.3
2018-Apr-17 08:00N 34°35' E 135°26'0 0.0
2018-Apr-17 07:30N 34°35' E 135°26'0 0.0
2018-Apr-17 07:00N 34°35' E 135°26'0 0.0
2018-Apr-17 06:30N 34°35' E 135°26'1 1.1
2018-Apr-17 06:00N 34°36' E 135°25'3 6.5
2018-Apr-17 05:30N 34°36' E 135°21'2 4.5
2018-Apr-17 05:00N 34°35' E 135°19'0 0.1
2018-Apr-17 04:30N 34°35' E 135°19'0 0.0
2018-Apr-17 04:00N 34°35' E 135°19'0 0.1
2018-Apr-17 03:30N 34°35' E 135°18'0 0.0
2018-Apr-17 02:58N 34°35' E 135°18'3 6.5
2018-Apr-17 02:30N 34°35' E 135°15'3 6.9
2018-Apr-17 02:00N 34°35' E 135°11'3 5.2
2018-Apr-17 01:30N 34°35' E 135°08'4 7.0
2018-Apr-17 01:00N 34°36' E 135°03'3 5.7
2018-Apr-17 00:30N 34°37' E 135°00'4 7.1
2018-Apr-17 00:00N 34°36' E 134°56'3 6.0
2018-Apr-16 23:30N 34°34' E 134°53'3 6.5
2018-Apr-16 23:00N 34°33' E 134°50'4 7.6
2018-Apr-16 22:30N 34°31' E 134°46'4 8.3
2018-Apr-16 22:00N 34°30' E 134°41'4 8.4
2018-Apr-16 21:30N 34°28' E 134°36'4 8.5
2018-Apr-16 21:00N 34°26' E 134°31'4 8.4
2018-Apr-16 20:30N 34°25' E 134°27'4 8.7
2018-Apr-16 20:00N 34°24' E 134°21'4 8.8
2018-Apr-16 19:30N 34°24' E 134°16'5 9.5
2018-Apr-16 18:59N 34°25' E 134°10'6 0.2
2018-Apr-15 12:08N 34°27' E 134°04'210.0
2018-Apr-15 11:58N 34°27' E 134°06'610.4
2018-Apr-15 11:23N 34°25' E 134°13'4 9.9
2018-Apr-15 11:00N 34°25' E 134°17'5 9.7
2018-Apr-15 10:30N 34°26' E 134°23'5 9.5
2018-Apr-15 09:59N 34°28' E 134°28'5 9.5
2018-Apr-15 09:30N 34°30' E 134°34'5 9.5
2018-Apr-15 09:00N 34°31' E 134°39'5 9.4
2018-Apr-15 08:30N 34°33' E 134°44'5 9.0
2018-Apr-15 08:00N 34°34' E 134°50'4 8.6
2018-Apr-15 07:30N 34°36' E 134°54'4 7.9
2018-Apr-15 07:00N 34°37' E 134°59'3 6.3
2018-Apr-15 06:30N 34°37' E 135°03'3 5.2
2018-Apr-15 06:00N 34°36' E 135°06'4 8.5
2018-Apr-15 05:30N 34°36' E 135°11'5 9.0
2018-Apr-15 05:00N 34°37' E 135°16'4 9.0
2018-Apr-15 04:30N 34°36' E 135°22'4 7.2
2018-Apr-15 04:01N 34°35' E 135°26'0 0.1
2018-Apr-15 03:30N 34°35' E 135°26'0 0.0
2018-Apr-15 03:00N 34°35' E 135°26'0 0.0
2018-Apr-15 02:30N 34°35' E 135°26'0 0.0
2018-Apr-15 02:00N 34°35' E 135°26'0 0.0
2018-Apr-15 01:30N 34°35' E 135°26'0 0.0
2018-Apr-15 01:00N 34°35' E 135°26'0 0.0
2018-Apr-15 00:30N 34°35' E 135°26'0 0.0
2018-Apr-15 00:00N 34°35' E 135°26'0 0.0
2018-Apr-14 23:30N 34°35' E 135°26'0 0.0
2018-Apr-14 23:00N 34°35' E 135°26'0 0.0
2018-Apr-14 22:30N 34°35' E 135°26'0 0.0
2018-Apr-14 22:00N 34°35' E 135°26'0 0.0
2018-Apr-14 21:30N 34°35' E 135°26'0 0.0
2018-Apr-14 21:00N 34°35' E 135°26'0 0.0
2018-Apr-14 20:30N 34°35' E 135°26'0 0.0
2018-Apr-14 20:00N 34°35' E 135°26'0 0.0
2018-Apr-14 19:30N 34°35' E 135°26'0 0.0
2018-Apr-14 19:00N 34°35' E 135°26'0 0.0
2018-Apr-14 18:30N 34°35' E 135°26'0 0.0
2018-Apr-14 18:00N 34°35' E 135°26'0 0.0
2018-Apr-14 17:30N 34°35' E 135°26'0 0.0
2018-Apr-14 17:00N 34°35' E 135°26'0 0.0
2018-Apr-14 16:30N 34°35' E 135°26'0 0.0
2018-Apr-14 16:00N 34°35' E 135°26'0 0.0
2018-Apr-14 15:30N 34°35' E 135°26'0 0.0
2018-Apr-14 15:00N 34°35' E 135°26'0 0.0
2018-Apr-14 14:30N 34°35' E 135°26'0 0.0
2018-Apr-14 14:00N 34°35' E 135°26'0 0.0
2018-Apr-14 13:30N 34°35' E 135°26'0 0.0
2018-Apr-14 13:00N 34°35' E 135°26'0 0.0
2018-Apr-14 12:30N 34°35' E 135°26'0 0.0
2018-Apr-14 12:00N 34°35' E 135°26'0 0.0
2018-Apr-14 11:30N 34°35' E 135°26'0 0.0
2018-Apr-14 11:00N 34°35' E 135°26'0 0.0
2018-Apr-14 10:30N 34°35' E 135°26'0 0.0
2018-Apr-14 10:00N 34°35' E 135°26'0 0.0
2018-Apr-14 09:30N 34°35' E 135°26'0 0.0
2018-Apr-14 09:00N 34°35' E 135°26'0 0.0
2018-Apr-14 08:30N 34°35' E 135°26'0 0.0
2018-Apr-14 08:00N 34°35' E 135°26'0 0.0
2018-Apr-14 07:30N 34°35' E 135°26'0 0.0
2018-Apr-14 07:00N 34°35' E 135°26'0 0.0
2018-Apr-14 06:30N 34°35' E 135°26'0 0.0
2018-Apr-14 06:00N 34°35' E 135°26'0 0.0
2018-Apr-14 05:30N 34°35' E 135°26'0 0.0
2018-Apr-14 05:00N 34°35' E 135°26'0 0.0
2018-Apr-14 04:30N 34°35' E 135°26'0 0.0
2018-Apr-14 04:00N 34°35' E 135°26'0 0.0
2018-Apr-14 03:30N 34°35' E 135°26'0 0.0
2018-Apr-14 03:00N 34°35' E 135°26'0 0.0
2018-Apr-14 02:30N 34°35' E 135°26'0 0.0
2018-Apr-14 02:00N 34°35' E 135°26'0 0.0
2018-Apr-14 01:30N 34°35' E 135°26'0 0.0
2018-Apr-14 01:00N 34°35' E 135°26'0 0.0
2018-Apr-14 00:30N 34°35' E 135°26'0 0.0
2018-Apr-14 00:00N 34°35' E 135°26'1 2.9
2018-Apr-13 23:30N 34°36' E 135°24'4 7.0
2018-Apr-13 23:00N 34°36' E 135°20'3 6.5
2018-Apr-13 22:30N 34°39' E 135°21'4 7.5
2018-Apr-13 22:01N 34°43' E 135°21'0 0.1
2018-Apr-13 21:28N 34°43' E 135°21'0 0.0
2018-Apr-13 21:00N 34°43' E 135°21'0 0.0
2018-Apr-13 20:30N 34°43' E 135°21'0 0.0
2018-Apr-13 20:00N 34°43' E 135°21'0 0.0
2018-Apr-13 19:30N 34°43' E 135°21'0 0.0
2018-Apr-13 19:00N 34°43' E 135°21'0 0.0
2018-Apr-13 18:30N 34°43' E 135°21'0 0.0
2018-Apr-13 18:00N 34°43' E 135°21'0 0.0
2018-Apr-13 17:30N 34°43' E 135°21'0 0.0
2018-Apr-13 17:00N 34°43' E 135°21'0 0.0
2018-Apr-13 16:30N 34°43' E 135°21'0 0.0
2018-Apr-13 16:00N 34°43' E 135°21'0 0.0
2018-Apr-13 15:30N 34°43' E 135°21'0 0.0
2018-Apr-13 15:00N 34°43' E 135°21'0 0.0
2018-Apr-13 14:30N 34°43' E 135°21'0 0.0
2018-Apr-13 14:00N 34°43' E 135°21'0 0.0
2018-Apr-13 13:30N 34°43' E 135°21'0 0.0
2018-Apr-13 13:00N 34°43' E 135°21'0 0.0
2018-Apr-13 12:30N 34°43' E 135°21'3 5.0
2018-Apr-13 12:00N 34°41' E 135°19'4 7.9
2018-Apr-13 11:30N 34°38' E 135°16'4 7.9
2018-Apr-13 11:00N 34°36' E 135°12'4 7.9
2018-Apr-13 10:30N 34°35' E 135°07'4 7.5
2018-Apr-13 10:00N 34°36' E 135°03'3 5.3
2018-Apr-13 09:30N 34°37' E 134°60'3 6.1
2018-Apr-13 09:00N 34°36' E 134°56'4 7.2
2018-Apr-13 08:30N 34°34' E 134°53'4 7.9
2018-Apr-13 08:00N 34°32' E 134°48'4 8.6
2018-Apr-13 07:30N 34°31' E 134°43'4 9.0
2018-Apr-13 07:00N 34°29' E 134°38'5 9.1
2018-Apr-13 06:30N 34°27' E 134°33'5 9.0
2018-Apr-13 06:00N 34°26' E 134°28'5 9.2
2018-Apr-13 05:30N 34°24' E 134°23'5 9.3
2018-Apr-13 04:59N 34°24' E 134°17'12 0.8
2018-Apr-12 15:09N 34°27' E 134°04'1 7.7
2018-Apr-12 15:00N 34°27' E 134°05'4 7.5
2018-Apr-12 14:29N 34°26' E 134°10'4 7.5
2018-Apr-12 14:00N 34°24' E 134°14'4 7.8
2018-Apr-12 13:30N 34°24' E 134°18'4 8.5
2018-Apr-12 12:59N 34°26' E 134°23'4 8.5
2018-Apr-12 12:30N 34°27' E 134°28'4 9.0
2018-Apr-12 12:00N 34°29' E 134°33'5 9.0
2018-Apr-12 11:30N 34°31' E 134°38'5 9.1
2018-Apr-12 11:00N 34°32' E 134°43'5 9.5
2018-Apr-12 10:30N 34°34' E 134°49'510.4
2018-Apr-12 10:00N 34°36' E 134°54'510.5
2018-Apr-12 09:30N 34°38' E 135°00'510.2
2018-Apr-12 09:00N 34°36' E 135°06'5 9.5
2018-Apr-12 08:30N 34°37' E 135°12'4 8.9
2018-Apr-12 08:00N 34°38' E 135°17'4 8.1
2018-Apr-12 07:30N 34°42' E 135°20'2 3.2
2018-Apr-12 07:00N 34°43' E 135°21'0 0.0
2018-Apr-12 06:30N 34°43' E 135°21'0 0.0
2018-Apr-12 06:00N 34°43' E 135°21'0 0.0
2018-Apr-12 05:30N 34°43' E 135°21'0 0.0
2018-Apr-12 05:00N 34°43' E 135°21'0 0.0
2018-Apr-12 04:30N 34°43' E 135°21'0 0.0
2018-Apr-12 04:00N 34°43' E 135°21'3 6.0
2018-Apr-12 03:30N 34°40' E 135°22'4 7.4
2018-Apr-12 03:00N 34°37' E 135°21'4 7.5
2018-Apr-12 02:30N 34°35' E 135°26'0 0.4
2018-Apr-12 02:00N 34°35' E 135°26'0 0.0
2018-Apr-12 01:30N 34°35' E 135°26'0 0.0
2018-Apr-12 01:00N 34°35' E 135°26'0 0.0
2018-Apr-12 00:30N 34°35' E 135°26'0 0.0
2018-Apr-12 00:00N 34°35' E 135°26'2 4.5
2018-Apr-11 23:30N 34°36' E 135°23'4 8.4
2018-Apr-11 23:00N 34°36' E 135°18'4 8.0
2018-Apr-11 22:30N 34°35' E 135°13'4 7.9
2018-Apr-11 22:00N 34°35' E 135°09'4 7.5
2018-Apr-11 21:30N 34°35' E 135°04'3 6.1
2018-Apr-11 21:00N 34°37' E 135°01'3 5.6
2018-Apr-11 20:30N 34°36' E 134°58'4 7.1
2018-Apr-11 20:00N 34°35' E 134°54'4 7.3
2018-Apr-11 19:30N 34°33' E 134°50'4 8.1
2018-Apr-11 19:00N 34°32' E 134°45'4 8.6
2018-Apr-11 18:30N 34°30' E 134°41'4 8.6
2018-Apr-11 18:00N 34°28' E 134°36'4 8.7
2018-Apr-11 17:30N 34°27' E 134°31'4 8.8
2018-Apr-11 17:00N 34°25' E 134°26'  

Dump ship's entire track history